createdAt,value
2016-06-06T08:40:03.074Z,45
2016-06-06T08:40:15.511Z,45
2016-06-06T08:41:15.499Z,45
2016-06-06T08:42:15.502Z,50
2016-06-06T08:43:15.520Z,50
2016-06-06T08:44:15.710Z,45
2016-06-06T08:45:15.400Z,45
2016-06-06T08:46:15.543Z,45
2016-06-06T08:47:15.561Z,35
2016-06-06T08:48:15.408Z,40
2016-06-06T08:49:15.583Z,45
2016-06-06T08:50:15.569Z,45
2016-06-06T08:51:15.619Z,50
2016-06-06T08:52:15.607Z,35
2016-06-06T08:53:15.624Z,30
2016-06-06T08:54:15.627Z,30
2016-06-06T08:55:15.630Z,30
2016-06-06T08:56:15.648Z,45
2016-06-06T08:57:15.651Z,45
2016-06-06T08:58:15.669Z,50
2016-06-06T08:59:15.704Z,50
2016-06-06T09:00:16.018Z,50
2016-06-06T09:01:15.724Z,50
2016-06-06T09:02:15.712Z,50
2016-06-06T09:03:15.761Z,50
2016-06-06T09:04:15.732Z,35
2016-06-06T09:05:15.751Z,35
2016-06-06T09:06:15.753Z,35
2016-06-06T09:07:15.756Z,55
2016-06-06T09:08:15.774Z,50
2016-06-06T09:09:15.793Z,45
2016-06-06T09:10:15.795Z,50
2016-06-06T09:11:15.798Z,50
2016-06-06T09:12:15.817Z,55
2016-06-06T09:13:15.819Z,60
2016-06-06T09:14:15.884Z,60
2016-06-06T09:15:15.840Z,55
2016-06-06T09:16:15.858Z,45
2016-06-06T09:17:15.861Z,40
2016-06-06T09:18:15.724Z,50
2016-06-06T09:19:15.913Z,35
2016-06-06T09:20:15.916Z,55
2016-06-06T09:21:15.919Z,55
2016-06-06T09:22:15.905Z,40
2016-06-06T09:23:15.924Z,40
2016-06-06T09:24:15.943Z,45
2016-06-06T09:25:15.945Z,40
2016-06-06T09:26:15.963Z,40
2016-06-06T09:27:15.966Z,55
2016-06-06T09:28:15.985Z,55
2016-06-06T09:29:16.596Z,55
2016-06-06T09:30:15.834Z,55
2016-06-06T09:31:16.008Z,55
2016-06-06T09:32:16.011Z,55
2016-06-06T09:33:16.029Z,55
2016-06-06T09:34:16.032Z,55
2016-06-06T09:35:16.035Z,55
2016-06-06T09:36:16.053Z,55
2016-06-06T09:37:16.056Z,55
2016-06-06T09:38:16.073Z,55
2016-06-06T09:39:16.076Z,55
2016-06-06T09:40:16.095Z,55
2016-06-06T09:41:16.098Z,55
2016-06-06T09:42:16.100Z,55
2016-06-06T09:43:16.134Z,55
2016-06-06T09:44:17.152Z,55
2016-06-06T09:45:15.984Z,55
2016-06-06T09:46:16.002Z,55
2016-06-06T09:47:16.161Z,55
2016-06-06T09:48:16.179Z,55
2016-06-06T09:49:16.025Z,30
2016-06-06T09:50:16.184Z,30
2016-06-06T09:51:16.202Z,35
2016-06-06T09:52:16.205Z,55
2016-06-06T09:53:16.224Z,55
2016-06-06T09:54:16.242Z,55
2016-06-06T09:55:16.260Z,55
2016-06-06T09:56:16.247Z,55
2016-06-06T09:57:16.266Z,55
2016-06-06T09:58:16.299Z,45
2016-06-06T09:59:16.334Z,50
2016-06-06T10:00:16.290Z,60
2016-06-06T10:01:16.308Z,60
2016-06-06T10:02:16.154Z,60
2016-06-06T10:03:16.360Z,55
2016-06-06T10:04:16.331Z,40
2016-06-06T10:05:16.350Z,55
2016-06-06T10:06:16.353Z,55
2016-06-06T10:07:16.387Z,60
2016-06-06T10:08:16.389Z,60
2016-06-06T10:09:16.376Z,60
2016-06-06T10:10:16.238Z,60
2016-06-06T10:11:16.398Z,60
2016-06-06T10:12:16.103Z,60
2016-06-06T10:13:16.433Z,60
2016-06-06T10:14:16.484Z,60
2016-06-06T10:15:16.298Z,60
2016-06-06T10:16:16.458Z,60
2016-06-06T10:17:16.460Z,55
2016-06-06T10:18:16.322Z,60
2016-06-06T10:19:16.497Z,60
2016-06-06T10:20:16.500Z,60
2016-06-06T10:21:16.533Z,60
2016-06-06T10:22:16.521Z,60
2016-06-06T10:23:16.524Z,55
2016-06-06T10:24:16.541Z,60
2016-06-06T10:25:16.544Z,60
2016-06-06T10:26:16.563Z,65
2016-06-06T10:27:16.565Z,70
2016-06-06T10:28:16.582Z,70
2016-06-06T10:29:17.352Z,65
2016-06-06T10:30:16.760Z,65
2016-06-06T10:31:16.591Z,65
2016-06-06T10:32:16.609Z,65
2016-06-06T10:33:16.471Z,65
2016-06-06T10:34:16.678Z,70
2016-06-06T10:35:16.649Z,65
2016-06-06T10:36:16.667Z,65
2016-06-06T10:37:16.670Z,65
2016-06-06T10:38:16.672Z,70
2016-06-06T10:39:16.676Z,70
2016-06-06T10:40:16.694Z,70
2016-06-06T10:41:16.712Z,70
2016-06-06T10:42:16.574Z,70
2016-06-06T10:43:16.577Z,70
2016-06-06T10:44:16.611Z,70
2016-06-06T10:45:16.614Z,70
2016-06-06T10:46:16.756Z,70
2016-06-06T10:47:16.775Z,65
2016-06-06T10:48:16.778Z,65
2016-06-06T10:49:16.796Z,65
2016-06-06T10:50:16.814Z,65
2016-06-06T10:51:16.817Z,65
2016-06-06T10:52:17.133Z,65
2016-06-06T10:53:16.682Z,65
2016-06-06T10:54:16.841Z,65
2016-06-06T10:55:16.860Z,65
2016-06-06T10:56:16.862Z,55
2016-06-06T10:57:16.724Z,65
2016-06-06T10:58:16.898Z,65
2016-06-06T10:59:16.776Z,70
2016-06-06T11:00:17.232Z,65
2016-06-06T11:01:16.938Z,70
2016-06-06T11:02:16.924Z,70
2016-06-06T11:03:16.927Z,75
2016-06-06T11:04:16.962Z,75
2016-06-06T11:05:16.949Z,75
2016-06-06T11:06:16.968Z,75
2016-06-06T11:07:16.985Z,70
2016-06-06T11:08:17.003Z,70
2016-06-06T11:09:17.365Z,70
2016-06-06T11:10:17.384Z,65
2016-06-06T11:11:17.043Z,65
2016-06-06T11:12:17.045Z,65
2016-06-06T11:13:17.251Z,65
2016-06-06T11:14:17.786Z,65
2016-06-06T11:15:17.131Z,65
2016-06-06T11:16:17.087Z,65
2016-06-06T11:17:17.199Z,65
2016-06-06T11:18:17.156Z,65
2016-06-06T11:19:17.111Z,65
2016-06-06T11:20:17.114Z,65
2016-06-06T11:21:17.398Z,65
2016-06-06T11:22:17.150Z,65
2016-06-06T11:23:17.325Z,65
2016-06-06T11:24:17.172Z,65
2016-06-06T11:25:17.440Z,65
2016-06-06T11:26:17.552Z,65
2016-06-06T11:27:17.211Z,65
2016-06-06T11:28:17.666Z,65
2016-06-06T11:29:17.857Z,65
2016-06-06T11:30:17.844Z,65
2016-06-06T11:31:17.252Z,65
2016-06-06T11:32:17.412Z,65
2016-06-06T11:33:17.274Z,65
2016-06-06T11:34:17.292Z,65
2016-06-06T11:35:17.342Z,65
2016-06-06T11:36:17.501Z,65
2016-06-06T11:37:17.316Z,65
2016-06-06T11:38:17.396Z,65
2016-06-06T11:39:17.353Z,65
2016-06-06T11:40:17.355Z,65
2016-06-06T11:41:17.404Z,65
2016-06-06T11:42:17.376Z,65
2016-06-06T11:43:17.489Z,65
2016-06-06T11:44:17.287Z,65
2016-06-06T11:45:18.353Z,65
2016-06-06T11:46:17.418Z,65
2016-06-06T11:47:17.467Z,65
2016-06-06T11:48:17.267Z,65
2016-06-06T11:49:17.286Z,65
2016-06-06T11:50:17.445Z,65
2016-06-06T11:51:17.463Z,65
2016-06-06T11:52:17.481Z,65
2016-06-06T11:53:17.578Z,65
2016-06-06T11:54:17.846Z,65
2016-06-06T11:55:17.505Z,65
2016-06-06T11:56:17.524Z,65
2016-06-06T11:57:17.541Z,65
2016-06-06T11:58:17.607Z,65
2016-06-06T11:59:17.406Z,65
2016-06-06T12:00:18.691Z,65
2016-06-06T12:01:17.412Z,65
2016-06-06T12:02:17.726Z,65
2016-06-06T12:03:17.589Z,65
2016-06-06T12:04:17.796Z,65
2016-06-06T12:05:17.626Z,65
2016-06-06T12:06:17.628Z,65
2016-06-06T12:07:17.741Z,65
2016-06-06T12:08:17.649Z,65
2016-06-06T12:09:17.667Z,65
2016-06-06T12:10:17.780Z,60
2016-06-06T12:11:17.689Z,60
2016-06-06T12:12:31.848Z,60
2016-06-06T12:13:17.710Z,60
2016-06-06T12:14:18.275Z,60
2016-06-06T12:15:31.887Z,60
2016-06-06T12:16:17.749Z,60
2016-06-06T12:17:17.955Z,60
2016-06-06T12:18:17.911Z,60
2016-06-06T12:19:17.632Z,60
2016-06-06T12:20:17.791Z,60
2016-06-06T12:21:31.950Z,60
2016-06-06T12:22:17.812Z,60
2016-06-06T12:23:17.939Z,60
2016-06-06T12:24:18.036Z,60
2016-06-06T12:25:17.882Z,60
2016-06-06T12:26:17.838Z,65
2016-06-06T12:27:18.075Z,65
2016-06-06T12:28:17.859Z,60
2016-06-06T12:29:17.955Z,60
2016-06-06T12:30:18.099Z,65
2016-06-06T12:31:32.071Z,65
2016-06-06T12:32:18.105Z,65
2016-06-06T12:33:17.919Z,65
2016-06-06T12:34:17.937Z,65
2016-06-06T12:35:18.066Z,65
2016-06-06T12:36:17.959Z,65
2016-06-06T12:37:18.009Z,65
2016-06-06T12:38:17.979Z,65
2016-06-06T12:39:17.826Z,65
2016-06-06T12:40:18.001Z,60
2016-06-06T12:41:18.004Z,60
2016-06-06T12:42:18.022Z,60
2016-06-06T12:43:18.041Z,60
2016-06-06T12:44:18.793Z,60
2016-06-06T12:45:19.326Z,60
2016-06-06T12:46:18.126Z,60
2016-06-06T12:47:18.067Z,60
2016-06-06T12:48:17.929Z,60
2016-06-06T12:49:18.103Z,60
2016-06-06T12:50:18.106Z,60
2016-06-06T12:51:18.140Z,60
2016-06-06T12:52:18.142Z,60
2016-06-06T12:53:18.145Z,60
2016-06-06T12:54:18.164Z,60
2016-06-06T12:55:18.167Z,60
2016-06-06T12:56:18.200Z,60
2016-06-06T12:57:18.187Z,55
2016-06-06T12:58:18.205Z,60
2016-06-06T12:59:18.068Z,60
2016-06-06T13:00:18.258Z,60
2016-06-06T13:01:18.230Z,60
2016-06-06T13:02:18.247Z,60
2016-06-06T13:03:18.266Z,60
2016-06-06T13:04:18.174Z,60
2016-06-06T13:05:18.288Z,60
2016-06-06T13:06:18.274Z,60
2016-06-06T13:07:18.307Z,60
2016-06-06T13:08:18.311Z,55
2016-06-06T13:09:18.329Z,55
2016-06-06T13:10:18.332Z,55
2016-06-06T13:11:18.350Z,55
2016-06-06T13:12:18.368Z,55
2016-06-06T13:13:18.356Z,55
2016-06-06T13:14:19.874Z,55
2016-06-06T13:15:18.736Z,55
2016-06-06T13:16:18.379Z,55
2016-06-06T13:17:18.397Z,55
2016-06-06T13:18:18.415Z,55
2016-06-06T13:19:18.434Z,55
2016-06-06T13:20:18.437Z,55
2016-06-06T13:21:18.470Z,55
2016-06-06T13:22:18.301Z,55
2016-06-06T13:23:18.476Z,55
2016-06-06T13:24:18.338Z,55
2016-06-06T13:25:18.481Z,55
2016-06-06T13:26:18.344Z,55
2016-06-06T13:27:18.518Z,55
2016-06-06T13:28:18.536Z,55
2016-06-06T13:29:18.727Z,55
2016-06-06T13:30:18.432Z,55
2016-06-06T13:31:18.560Z,50
2016-06-06T13:32:18.563Z,50
2016-06-06T13:33:18.424Z,50
2016-06-06T13:34:18.599Z,50
2016-06-06T13:35:18.618Z,50
2016-06-06T13:36:18.621Z,50
2016-06-06T13:37:18.623Z,50
2016-06-06T13:38:18.626Z,50
2016-06-06T13:39:18.644Z,50
2016-06-06T13:40:18.506Z,50
2016-06-06T13:41:18.509Z,50
2016-06-06T13:42:18.698Z,50
2016-06-06T13:43:18.702Z,50
2016-06-06T13:44:18.596Z,50
2016-06-06T13:45:19.192Z,50
2016-06-06T13:46:18.709Z,50
2016-06-06T13:47:18.713Z,50
2016-06-06T13:48:18.731Z,50
2016-06-06T13:49:18.733Z,50
2016-06-06T13:50:18.751Z,50
2016-06-06T13:51:18.770Z,50
2016-06-06T13:52:18.648Z,50
2016-06-06T13:53:18.806Z,50
2016-06-06T13:54:18.794Z,50
2016-06-06T13:55:18.812Z,50
2016-06-06T13:56:18.814Z,50
2016-06-06T13:57:18.677Z,50
2016-06-06T13:58:18.835Z,50
2016-06-06T13:59:19.588Z,50
2016-06-06T14:00:18.732Z,50
2016-06-06T14:01:18.953Z,50
2016-06-06T14:02:18.894Z,50
2016-06-06T14:03:18.896Z,50
2016-06-06T14:04:18.930Z,50
2016-06-06T14:05:18.917Z,50
2016-06-06T14:06:18.936Z,45
2016-06-06T14:07:18.938Z,45
2016-06-06T14:08:18.957Z,45
2016-06-06T14:09:18.818Z,45
2016-06-06T14:10:18.962Z,45
2016-06-06T14:11:18.980Z,45
2016-06-06T14:12:18.843Z,45
2016-06-06T14:13:19.017Z,45
2016-06-06T14:14:19.020Z,45
2016-06-06T14:15:19.804Z,45
2016-06-06T14:16:19.026Z,45
2016-06-06T14:17:19.059Z,45
2016-06-06T14:18:19.061Z,45
2016-06-06T14:19:18.923Z,45
2016-06-06T14:20:19.082Z,45
2016-06-06T14:21:19.100Z,45
2016-06-06T14:22:19.103Z,45
2016-06-06T14:23:18.965Z,45
2016-06-06T14:24:19.109Z,45
2016-06-06T14:25:19.128Z,45
2016-06-06T14:26:19.161Z,45
2016-06-06T14:27:19.147Z,40
2016-06-06T14:28:19.058Z,40
2016-06-06T14:29:20.044Z,40
2016-06-06T14:30:19.796Z,40
2016-06-06T14:31:19.206Z,40
2016-06-06T14:32:19.208Z,40
2016-06-06T14:33:19.071Z,40
2016-06-06T14:34:19.229Z,40
2016-06-06T14:35:19.232Z,40
2016-06-06T14:36:19.250Z,40
2016-06-06T14:37:19.285Z,40
2016-06-06T14:38:19.255Z,40
2016-06-06T14:39:19.275Z,40
2016-06-06T14:40:19.293Z,40
2016-06-06T14:41:19.310Z,40
2016-06-06T14:42:19.313Z,40
2016-06-06T14:43:19.332Z,40
2016-06-06T14:44:19.710Z,40
2016-06-06T14:45:19.665Z,40
2016-06-06T14:46:19.353Z,40
2016-06-06T14:47:19.371Z,40
2016-06-06T14:48:19.373Z,40
2016-06-06T14:49:19.377Z,40
2016-06-06T14:50:19.395Z,40
2016-06-06T14:51:19.397Z,35
2016-06-06T14:52:19.415Z,35
2016-06-06T14:53:19.418Z,35
2016-06-06T14:54:19.436Z,35
2016-06-06T14:55:19.439Z,35
2016-06-06T14:56:19.458Z,35
2016-06-06T14:57:19.476Z,35
2016-06-06T14:58:19.478Z,35
2016-06-06T14:59:19.217Z,35
2016-06-06T15:00:19.844Z,35
2016-06-06T15:01:19.519Z,35
2016-06-06T15:02:19.521Z,35
2016-06-06T15:03:19.383Z,35
2016-06-06T15:04:19.386Z,35
2016-06-06T15:05:19.575Z,35
2016-06-06T15:06:19.578Z,35
2016-06-06T15:07:19.581Z,35
2016-06-06T15:08:19.443Z,35
2016-06-06T15:09:19.603Z,35
2016-06-06T15:10:19.605Z,35
2016-06-06T15:11:19.466Z,35
2016-06-06T15:12:19.469Z,35
2016-06-06T15:13:19.644Z,35
2016-06-06T15:14:19.506Z,30
2016-06-06T15:15:19.806Z,30
2016-06-06T15:16:19.527Z,30
2016-06-06T15:17:19.686Z,30
2016-06-06T15:18:19.704Z,30
2016-06-06T15:19:19.707Z,30
2016-06-06T15:20:19.726Z,30
2016-06-06T15:21:19.744Z,30
2016-06-06T15:22:19.746Z,30
2016-06-06T15:23:19.749Z,30
2016-06-06T15:24:19.768Z,30
2016-06-06T15:25:19.771Z,30
2016-06-06T15:26:19.632Z,30
2016-06-06T15:27:19.634Z,30
2016-06-06T15:28:19.825Z,30
2016-06-06T15:29:35.018Z,30
2016-06-06T15:30:19.675Z,30
2016-06-06T15:31:19.834Z,30
2016-06-06T15:32:19.867Z,30
2016-06-06T15:33:19.886Z,30
2016-06-06T15:34:19.888Z,30
2016-06-06T15:35:19.892Z,30
2016-06-06T15:36:19.894Z,25
2016-06-06T15:37:19.912Z,25
2016-06-06T15:38:19.930Z,25
2016-06-06T15:39:19.933Z,25
2016-06-06T15:40:19.936Z,25
2016-06-06T15:41:19.938Z,25
2016-06-06T15:42:19.957Z,25
2016-06-06T15:43:19.974Z,25
2016-06-06T15:44:19.993Z,25
2016-06-06T15:45:20.965Z,25
2016-06-06T15:46:19.999Z,25
2016-06-06T15:47:20.018Z,25
2016-06-06T15:48:20.020Z,25
2016-06-06T15:49:20.038Z,25
2016-06-06T15:50:20.057Z,25
2016-06-06T15:51:20.060Z,25
2016-06-06T15:52:19.906Z,25
2016-06-06T15:53:20.065Z,25
2016-06-06T15:54:20.098Z,20
2016-06-06T15:55:20.085Z,20
2016-06-06T15:56:20.104Z,20
2016-06-06T15:57:19.965Z,20
2016-06-06T15:58:20.140Z,20
2016-06-06T15:59:20.143Z,20
2016-06-06T16:00:20.256Z,20
2016-06-06T16:01:20.164Z,20
2016-06-06T16:02:20.183Z,20
2016-06-06T16:03:20.186Z,20
2016-06-06T16:04:20.203Z,20
2016-06-06T16:05:20.050Z,20
2016-06-06T16:06:20.240Z,20
2016-06-06T16:07:20.227Z,20
2016-06-06T16:08:20.277Z,20
2016-06-06T16:09:20.248Z,20
2016-06-06T16:10:20.111Z,20
2016-06-06T16:11:20.285Z,15
2016-06-06T16:12:20.288Z,15
2016-06-06T16:13:20.306Z,15
2016-06-06T16:14:20.512Z,15
2016-06-06T16:15:20.780Z,15
2016-06-06T16:16:20.330Z,15
2016-06-06T16:17:20.019Z,15
2016-06-06T16:18:20.351Z,15
2016-06-06T16:19:20.369Z,15
2016-06-06T16:20:20.357Z,15
2016-06-06T16:21:20.374Z,15
2016-06-06T16:22:20.393Z,15
2016-06-06T16:23:20.099Z,15
2016-06-06T16:24:20.413Z,15
2016-06-06T16:25:20.416Z,15
2016-06-06T16:26:20.435Z,15
2016-06-06T16:27:20.437Z,15
2016-06-06T16:28:20.456Z,15
2016-06-06T16:29:20.318Z,15
2016-06-06T16:30:20.914Z,15
2016-06-06T16:31:20.479Z,15
2016-06-06T16:32:20.498Z,15
2016-06-06T16:33:20.516Z,15
2016-06-06T16:34:20.519Z,15
2016-06-06T16:35:20.522Z,15
2016-06-06T16:36:20.540Z,15
2016-06-06T16:37:20.558Z,15
2016-06-06T16:38:20.545Z,15
2016-06-06T16:39:20.564Z,15
2016-06-06T16:40:20.581Z,15
2016-06-06T16:41:20.584Z,15
2016-06-06T16:42:20.447Z,15
2016-06-06T16:43:20.469Z,15
2016-06-06T16:44:20.477Z,10
2016-06-06T16:45:20.219Z,10
2016-06-06T16:46:20.664Z,10
2016-06-06T16:47:20.672Z,10
2016-06-06T16:48:20.693Z,10
2016-06-06T16:49:20.713Z,10
2016-06-06T16:50:20.716Z,10
2016-06-06T16:51:20.721Z,10
2016-06-06T16:52:20.756Z,10
2016-06-06T16:53:20.760Z,10
2016-06-06T16:54:20.763Z,10
2016-06-06T16:55:20.782Z,15
2016-06-06T16:56:20.801Z,15
2016-06-06T16:57:20.789Z,10
2016-06-06T16:58:20.808Z,10
2016-06-06T16:59:20.810Z,10
2016-06-06T17:00:20.705Z,10
2016-06-06T17:01:20.848Z,10
2016-06-06T17:02:20.851Z,10
2016-06-06T17:03:20.870Z,10
2016-06-06T17:04:20.872Z,10
2016-06-06T17:05:20.875Z,10
2016-06-06T17:06:20.893Z,10
2016-06-06T17:07:20.912Z,10
2016-06-06T17:08:20.914Z,10
2016-06-06T17:09:20.933Z,10
2016-06-06T17:10:20.936Z,10
2016-06-06T17:11:20.969Z,10
2016-06-06T17:12:20.956Z,10
2016-06-06T17:13:20.959Z,10
2016-06-06T17:14:20.977Z,10
2016-06-06T17:15:21.324Z,10
2016-06-06T17:16:20.999Z,10
2016-06-06T17:17:21.001Z,10
2016-06-06T17:18:21.019Z,10
2016-06-06T17:19:21.038Z,10
2016-06-06T17:20:21.056Z,10
2016-06-06T17:21:21.059Z,10
2016-06-06T17:22:21.062Z,10
2016-06-06T17:23:21.080Z,10
2016-06-06T17:24:21.082Z,10
2016-06-06T17:25:21.116Z,10
2016-06-06T17:26:21.118Z,10
2016-06-06T17:27:20.981Z,10
2016-06-06T17:28:20.984Z,10
2016-06-06T17:29:22.126Z,10
2016-06-06T17:30:22.021Z,10
2016-06-06T17:31:21.179Z,10
2016-06-06T17:32:21.181Z,10
2016-06-06T17:33:21.185Z,10
2016-06-06T17:34:21.203Z,10
2016-06-06T17:35:21.221Z,10
2016-06-06T17:36:21.224Z,10
2016-06-06T17:37:21.242Z,10
2016-06-06T17:38:21.260Z,10
2016-06-06T17:39:21.264Z,10
2016-06-06T17:40:21.281Z,10
2016-06-06T17:41:21.127Z,10
2016-06-06T17:42:21.303Z,10
2016-06-06T17:43:21.305Z,10
2016-06-06T17:44:21.339Z,10
2016-06-06T17:45:21.482Z,10
2016-06-06T17:46:21.345Z,10
2016-06-06T17:47:21.347Z,10
2016-06-06T17:48:21.381Z,10
2016-06-06T17:49:21.369Z,10
2016-06-06T17:50:21.387Z,5
2016-06-06T17:51:21.420Z,5
2016-06-06T17:52:21.407Z,5
2016-06-06T17:53:21.426Z,5
2016-06-06T17:54:21.429Z,5
2016-06-06T17:55:21.446Z,5
2016-06-06T17:56:21.449Z,5
2016-06-06T17:57:21.484Z,5
2016-06-06T17:58:21.501Z,5
2016-06-06T17:59:21.489Z,5
2016-06-06T18:00:21.210Z,5
2016-06-06T18:01:21.354Z,5
2016-06-06T18:02:21.544Z,5
2016-06-06T18:03:21.531Z,5
2016-06-06T18:04:21.550Z,5
2016-06-06T18:05:21.552Z,5
2016-06-06T18:06:21.570Z,5
2016-06-06T18:07:21.604Z,5
2016-06-06T18:08:21.591Z,5
2016-06-06T18:09:21.609Z,5
2016-06-06T18:10:21.612Z,5
2016-06-06T18:11:21.630Z,5
2016-06-06T18:12:21.649Z,5
2016-06-06T18:13:21.667Z,5
2016-06-06T18:14:21.686Z,5
2016-06-06T18:15:22.532Z,5
2016-06-06T18:16:21.691Z,5
2016-06-06T18:17:21.694Z,5
2016-06-06T18:18:21.712Z,5
2016-06-06T18:19:21.715Z,5
2016-06-06T18:20:21.733Z,5
2016-06-06T18:21:21.752Z,5
2016-06-06T18:22:21.754Z,5
2016-06-06T18:23:21.772Z,5
2016-06-06T18:24:21.774Z,5
2016-06-06T18:25:21.794Z,5
2016-06-06T18:26:21.795Z,5
2016-06-06T18:27:21.814Z,5
2016-06-06T18:28:21.817Z,5
2016-06-06T18:29:21.835Z,5
2016-06-06T18:30:21.915Z,5
2016-06-06T18:31:21.873Z,5
2016-06-06T18:32:21.859Z,0
2016-06-06T18:33:21.720Z,0
2016-06-06T18:34:21.880Z,0
2016-06-06T18:35:21.898Z,0
2016-06-06T18:36:21.917Z,0
2016-06-06T18:37:21.934Z,0
2016-06-06T18:38:21.937Z,0
2016-06-06T18:39:21.800Z,0
2016-06-06T18:40:21.958Z,0
2016-06-06T18:41:21.977Z,0
2016-06-06T18:42:21.995Z,0
2016-06-06T18:43:21.997Z,0
2016-06-06T18:44:21.845Z,0
2016-06-06T18:45:23.206Z,0
2016-06-06T18:46:22.038Z,0
2016-06-06T18:47:22.040Z,0
2016-06-06T18:48:22.058Z,0
2016-06-06T18:49:22.061Z,0
2016-06-06T18:50:22.063Z,0
2016-06-06T18:51:22.082Z,0
2016-06-06T18:52:22.100Z,0
2016-06-06T18:53:21.807Z,0
2016-06-06T18:54:22.105Z,0
2016-06-06T18:55:22.139Z,0
2016-06-06T18:56:22.143Z,0
2016-06-06T18:57:22.145Z,0
2016-06-06T18:58:22.163Z,0
2016-06-06T18:59:22.182Z,0
2016-06-06T19:00:22.075Z,0
2016-06-06T19:01:22.202Z,0
2016-06-06T19:02:22.205Z,0
2016-06-06T19:03:22.223Z,0
2016-06-06T19:04:22.226Z,0
2016-06-06T19:05:22.244Z,0
2016-06-06T19:06:22.262Z,0
2016-06-06T19:07:22.265Z,0
2016-06-06T19:08:22.284Z,0
2016-06-06T19:09:22.145Z,0
2016-06-06T19:10:22.320Z,0
2016-06-06T19:11:22.323Z,0
2016-06-06T19:12:22.342Z,0
2016-06-06T19:13:22.360Z,0
2016-06-06T19:14:22.347Z,0
2016-06-06T19:15:22.380Z,0
2016-06-06T19:16:22.619Z,0
2016-06-06T19:17:22.667Z,0
2016-06-06T19:18:22.389Z,0
2016-06-06T19:19:22.407Z,0
2016-06-06T19:20:22.410Z,0
2016-06-06T19:21:22.428Z,0
2016-06-06T19:22:22.431Z,0
2016-06-06T19:23:22.449Z,0
2016-06-06T19:24:22.468Z,0
2016-06-06T19:25:22.470Z,0
2016-06-06T19:26:22.504Z,0
2016-06-06T19:27:22.507Z,0
2016-06-06T19:28:22.509Z,0
2016-06-06T19:29:22.512Z,0
2016-06-06T19:30:22.577Z,0
2016-06-06T19:31:22.534Z,0
2016-06-06T19:32:22.551Z,0
2016-06-06T19:33:22.570Z,0
2016-06-06T19:34:23.042Z,0
2016-06-06T19:35:23.762Z,0
2016-06-06T19:36:22.593Z,0
2016-06-06T19:37:22.612Z,0
2016-06-06T19:38:22.615Z,0
2016-06-06T19:39:22.633Z,0
2016-06-06T19:40:22.495Z,0
2016-06-06T19:41:22.498Z,0
2016-06-06T19:42:22.656Z,0
2016-06-06T19:43:22.691Z,0
2016-06-06T19:44:22.694Z,0
2016-06-06T19:45:22.539Z,0
2016-06-06T19:46:22.714Z,0
2016-06-06T19:47:22.717Z,0
2016-06-06T19:48:23.079Z,0
2016-06-06T19:49:23.269Z,0
2016-06-06T19:50:22.771Z,0
2016-06-06T19:51:22.618Z,0
2016-06-06T19:52:22.777Z,0
2016-06-06T19:53:22.796Z,0
2016-06-06T19:54:22.813Z,0
2016-06-06T19:55:22.801Z,0
2016-06-06T19:56:22.819Z,0
2016-06-06T19:57:22.822Z,0
2016-06-06T19:58:22.699Z,0
2016-06-06T19:59:22.843Z,0
2016-06-06T20:00:22.861Z,0
2016-06-06T20:01:22.895Z,0
2016-06-06T20:02:22.898Z,0
2016-06-06T20:03:22.900Z,0
2016-06-06T20:04:22.918Z,0
2016-06-06T20:05:22.938Z,0
2016-06-06T20:06:22.939Z,0
2016-06-06T20:07:22.943Z,0
2016-06-06T20:08:22.961Z,0
2016-06-06T20:09:22.979Z,0
2016-06-06T20:10:22.981Z,0
2016-06-06T20:11:22.984Z,0
2016-06-06T20:12:23.003Z,0
2016-06-06T20:13:23.021Z,0
2016-06-06T20:14:23.024Z,0
2016-06-06T20:15:23.058Z,0
2016-06-06T20:16:23.044Z,0
2016-06-06T20:17:23.047Z,0
2016-06-06T20:18:23.066Z,0
2016-06-06T20:19:23.084Z,0
2016-06-06T20:20:23.758Z,0
2016-06-06T20:21:23.122Z,0
2016-06-06T20:22:23.108Z,0
2016-06-06T20:23:23.110Z,0
2016-06-06T20:24:23.129Z,0
2016-06-06T20:25:23.147Z,0
2016-06-06T20:26:23.165Z,0
2016-06-06T20:27:23.168Z,0
2016-06-06T20:28:23.187Z,0
2016-06-06T20:29:23.190Z,0
2016-06-06T20:30:23.254Z,0
2016-06-06T20:31:23.226Z,0
2016-06-06T20:32:23.229Z,0
2016-06-06T20:33:23.232Z,0
2016-06-06T20:34:23.250Z,0
2016-06-06T20:35:23.815Z,0
2016-06-06T20:36:23.254Z,0
2016-06-06T20:37:23.273Z,0
2016-06-06T20:38:23.292Z,0
2016-06-06T20:39:23.153Z,0
2016-06-06T20:40:23.312Z,0
2016-06-06T20:41:23.331Z,0
2016-06-06T20:42:23.334Z,0
2016-06-06T20:43:23.352Z,0
2016-06-06T20:44:23.214Z,0
2016-06-06T20:45:23.232Z,0
2016-06-06T20:46:23.391Z,0
2016-06-06T20:47:23.394Z,0
2016-06-06T20:48:23.428Z,0
2016-06-06T20:49:23.414Z,0
2016-06-06T20:50:24.527Z,0
2016-06-06T20:51:23.279Z,0
2016-06-06T20:52:23.454Z,0
2016-06-06T20:53:23.457Z,0
2016-06-06T20:54:23.460Z,0
2016-06-06T20:55:23.509Z,0
2016-06-06T20:56:23.512Z,0
2016-06-06T20:57:23.515Z,0
2016-06-06T20:58:23.533Z,0
2016-06-06T20:59:23.520Z,0
2016-06-06T21:00:23.398Z,0
2016-06-06T21:01:23.541Z,0
2016-06-06T21:02:23.560Z,0
2016-06-06T21:03:23.578Z,0
2016-06-06T21:04:23.423Z,0
2016-06-06T21:05:23.754Z,0
2016-06-06T21:06:23.602Z,0
2016-06-06T21:07:23.620Z,0
2016-06-06T21:08:23.637Z,0
2016-06-06T21:09:23.640Z,0
2016-06-06T21:10:23.659Z,0
2016-06-06T21:11:23.662Z,0
2016-06-06T21:12:23.680Z,0
2016-06-06T21:13:23.683Z,0
2016-06-06T21:14:23.701Z,0
2016-06-06T21:15:23.720Z,0
2016-06-06T21:16:23.706Z,0
2016-06-06T21:17:23.740Z,0
2016-06-06T21:18:23.758Z,0
2016-06-06T21:19:23.746Z,0
2016-06-06T21:20:24.122Z,0
2016-06-06T21:21:23.782Z,0
2016-06-06T21:22:23.785Z,0
2016-06-06T21:23:23.788Z,0
2016-06-06T21:24:23.665Z,0
2016-06-06T21:25:23.824Z,0
2016-06-06T21:26:23.827Z,0
2016-06-06T21:27:23.846Z,0
2016-06-06T21:28:23.691Z,0
2016-06-06T21:29:23.866Z,0
2016-06-06T21:30:23.916Z,0
2016-06-06T21:31:23.887Z,0
2016-06-06T21:32:23.890Z,0
2016-06-06T21:33:23.923Z,0
2016-06-06T21:34:23.926Z,0
2016-06-06T21:35:24.085Z,0
2016-06-06T21:36:24.057Z,0
2016-06-06T21:37:23.950Z,0
2016-06-06T21:38:23.812Z,0
2016-06-06T21:39:23.987Z,0
2016-06-06T21:40:23.990Z,0
2016-06-06T21:41:24.008Z,0
2016-06-06T21:42:24.011Z,0
2016-06-06T21:43:24.013Z,0
2016-06-06T21:44:24.031Z,0
2016-06-06T21:45:24.050Z,0
2016-06-06T21:46:24.052Z,0
2016-06-06T21:47:24.055Z,0
2016-06-06T21:48:24.089Z,0
2016-06-06T21:49:24.076Z,0
2016-06-06T21:50:24.797Z,0
2016-06-06T21:51:23.956Z,0
2016-06-06T21:52:24.131Z,0
2016-06-06T21:53:24.134Z,0
2016-06-06T21:54:24.152Z,0
2016-06-06T21:55:24.155Z,0
2016-06-06T21:56:24.016Z,0
2016-06-06T21:57:24.176Z,0
2016-06-06T21:58:24.194Z,0
2016-06-06T21:59:24.197Z,0
2016-06-06T22:00:24.215Z,0
2016-06-06T22:01:24.233Z,0
2016-06-06T22:02:24.080Z,0
2016-06-06T22:03:24.239Z,0
2016-06-06T22:04:24.257Z,0
2016-06-06T22:05:23.979Z,0
2016-06-06T22:06:24.731Z,0
2016-06-06T22:07:24.281Z,0
2016-06-06T22:08:24.143Z,0
2016-06-06T22:09:24.302Z,0
2016-06-06T22:10:24.336Z,0
2016-06-06T22:11:24.323Z,0
2016-06-06T22:12:24.342Z,0
2016-06-06T22:13:24.360Z,0
2016-06-06T22:14:24.362Z,0
2016-06-06T22:15:24.381Z,0
2016-06-06T22:16:24.243Z,0
2016-06-06T22:17:24.401Z,0
2016-06-06T22:18:24.528Z,0
2016-06-06T22:19:24.532Z,0
2016-06-06T22:20:24.284Z,0
2016-06-06T22:21:24.444Z,0
2016-06-06T22:22:24.461Z,0
2016-06-06T22:23:24.464Z,0
2016-06-06T22:24:24.467Z,0
2016-06-06T22:25:24.486Z,0
2016-06-06T22:26:24.504Z,0
2016-06-06T22:27:24.507Z,0
2016-06-06T22:28:24.524Z,0
2016-06-06T22:29:24.527Z,0
2016-06-06T22:30:24.952Z,0
2016-06-06T22:31:24.549Z,0
2016-06-06T22:32:24.411Z,0
2016-06-06T22:33:24.898Z,0
2016-06-06T22:34:24.994Z,0
2016-06-06T22:35:24.591Z,0
2016-06-06T22:36:24.609Z,0
2016-06-06T22:37:24.627Z,0
2016-06-06T22:38:24.630Z,0
2016-06-06T22:39:24.679Z,0
2016-06-06T22:40:24.495Z,0
2016-06-06T22:41:24.670Z,0
2016-06-06T22:42:24.672Z,0
2016-06-06T22:43:24.690Z,0
2016-06-06T22:44:24.692Z,0
2016-06-06T22:45:24.711Z,0
2016-06-06T22:46:24.729Z,0
2016-06-06T22:47:24.748Z,0
2016-06-06T22:48:24.751Z,0
2016-06-06T22:49:24.753Z,0
2016-06-06T22:50:24.989Z,0
2016-06-06T22:51:24.649Z,0
2016-06-06T22:52:24.886Z,0
2016-06-06T22:53:24.811Z,0
2016-06-06T22:54:24.814Z,0
2016-06-06T22:55:24.832Z,0
2016-06-06T22:56:24.866Z,0
2016-06-06T22:57:24.852Z,0
2016-06-06T22:58:24.856Z,0
2016-06-06T22:59:24.874Z,0
2016-06-06T23:00:24.876Z,0
2016-06-06T23:01:24.910Z,0
2016-06-06T23:02:24.897Z,0
2016-06-06T23:03:24.900Z,0
2016-06-06T23:04:24.919Z,0
2016-06-06T23:05:25.624Z,0